Time;durP1;ratioP1;P1;durP2;ratioP2;P2;SDS_P1;SDS_P2;PMS_P1;PMS_P2;Temp;Humidity;BMP_temperature;BMP_pressure;BME280_temperature;BME280_humidity;BME280_pressure;Samples;Min_cycle;Max_cycle;Signal;HPM_P1;HPM_P2
2023/03/26 00:02:12;;;;;;;36.85;22.15;;;;;;;7.23;100.00;99347.80;1705137;84;21743;-82
2023/03/26 00:05:19;;;;;;;37.40;19.87;;;;;;;7.22;100.00;99344.77;1703743;84;21205;-81
2023/03/26 00:08:25;;;;;;;33.70;21.40;;;;;;;7.31;100.00;99349.97;1705144;84;21759;-81
2023/03/26 00:11:33;;;;;;;32.30;18.90;;;;;;;7.29;100.00;99355.24;1705231;84;21192;-81
2023/03/26 00:14:40;;;;;;;35.78;21.33;;;;;;;7.24;100.00;99345.41;1703939;84;21228;-81
2023/03/26 00:17:46;;;;;;;33.90;20.48;;;;;;;7.23;100.00;99339.64;1705257;84;21249;-81
2023/03/26 00:20:52;;;;;;;31.82;21.30;;;;;;;7.30;100.00;99346.92;1703814;83;21209;-81
2023/03/26 00:23:58;;;;;;;33.28;20.12;;;;;;;7.29;100.00;99343.88;1698171;84;21220;-81
2023/03/26 00:27:05;;;;;;;32.48;20.50;;;;;;;7.27;100.00;99340.98;1698887;84;21895;-81
2023/03/26 00:30:12;;;;;;;32.23;20.97;;;;;;;7.27;100.00;99343.19;1698195;83;21217;-81
2023/03/26 00:33:19;;;;;;;32.53;19.73;;;;;;;7.18;100.00;99336.95;1698741;84;21216;-81
2023/03/26 00:36:25;;;;;;;29.48;18.10;;;;;;;7.20;100.00;99330.47;1697916;84;21225;-81
2023/03/26 00:39:32;;;;;;;25.25;16.50;;;;;;;7.10;100.00;99326.10;1697806;84;21338;-81
2023/03/26 00:42:37;;;;;;;29.98;18.73;;;;;;;7.05;100.00;99320.87;1698869;84;21201;-81
2023/03/26 00:45:43;;;;;;;27.20;17.00;;;;;;;7.02;100.00;99321.25;1697614;84;21197;-81
2023/03/26 00:48:49;;;;;;;28.27;17.52;;;;;;;7.04;100.00;99325.98;1698824;84;21205;-81
2023/03/26 00:51:54;;;;;;;29.32;16.30;;;;;;;6.96;100.00;99319.22;1698748;84;21248;-82
2023/03/26 00:55:01;;;;;;;26.48;17.48;;;;;;;6.89;100.00;99318.57;1697584;84;21791;-81
2023/03/26 00:58:11;;;;;;;27.62;18.10;;;;;;;6.74;100.00;99312.19;1697562;84;21216;-81
2023/03/26 01:01:19;;;;;;;29.23;16.85;;;;;;;6.73;100.00;99316.42;1698722;84;21193;-81
2023/03/26 01:04:33;;;;;;;33.48;18.62;;;;;;;6.66;100.00;99313.05;1698160;84;21221;-81
2023/03/26 01:07:38;;;;;;;30.48;18.37;;;;;;;6.65;100.00;99311.88;1698813;84;21244;-81
2023/03/26 01:10:49;;;;;;;29.10;17.30;;;;;;;6.71;100.00;99300.30;1698824;84;21197;-81
2023/03/26 01:14:17;;;;;;;32.88;17.95;;;;;;;6.74;100.00;99297.75;1698783;84;21189;-82
2023/03/26 01:17:22;;;;;;;32.38;18.80;;;;;;;6.62;100.00;99291.84;1699009;84;21205;-84
2023/03/26 01:20:29;;;;;;;30.65;17.90;;;;;;;6.68;100.00;99297.95;1699124;84;21232;-84
2023/03/26 01:23:40;;;;;;;29.77;17.57;;;;;;;6.57;100.00;99293.73;1698463;84;21222;-84
2023/03/26 01:27:03;;;;;;;27.67;16.90;;;;;;;6.56;100.00;99298.83;1650161;87;21213;-82
2023/03/26 01:30:18;;;;;;;39.25;16.97;;;;;;;6.61;100.00;99291.00;1649409;85;21253;-82
2023/03/26 01:33:59;;;;;;;26.65;16.40;;;;;;;6.70;100.00;99290.97;1659256;85;21296;-82
2023/03/26 01:37:21;;;;;;;32.33;16.32;;;;;;;6.63;100.00;99277.22;1650301;87;21218;-82
2023/03/26 01:40:42;;;;;;;27.65;17.00;;;;;;;6.68;100.00;99281.65;1657890;86;21234;-83
2023/03/26 01:43:51;;;;;;;;;;;;;;;6.72;100.00;99279.41;1665344;86;21505;-82
2023/03/26 01:46:57;;;;;;;27.02;17.20;;;;;;;6.78;100.00;99279.56;1663073;86;20231;-82
2023/03/26 01:50:02;;;;;;;26.02;15.30;;;;;;;6.79;100.00;99283.13;1643507;87;21267;-82
2023/03/26 01:53:09;;;;;;;28.00;15.75;;;;;;;6.73;100.00;99280.61;1669878;86;21189;-83
2023/03/26 01:56:32;;;;;;;24.70;15.68;;;;;;;6.69;100.00;99287.41;1642246;87;21821;-83
2023/03/26 02:00:10;;;;;;;24.00;15.72;;;;;;;6.73;100.00;99289.24;1670014;86;21799;-82
2023/03/26 02:03:38;;;;;;;23.32;14.53;;;;;;;6.72;100.00;99282.12;1643598;87;21249;-82
2023/03/26 02:06:52;;;;;;;21.90;14.35;;;;;;;6.70;100.00;99282.82;1669799;86;21218;-82
2023/03/26 02:10:05;;;;;;;22.07;13.38;;;;;;;6.57;100.00;99282.02;1642690;87;21241;-82
2023/03/26 02:13:11;;;;;;;23.35;14.85;;;;;;;6.55;100.00;99281.36;1668708;86;21205;-81
2023/03/26 02:16:19;;;;;;;20.70;14.05;;;;;;;6.55;100.00;99280.84;1642383;87;21242;-82
2023/03/26 02:19:26;;;;;;;20.17;13.50;;;;;;;6.58;100.00;99274.19;1668960;86;21202;-82
2023/03/26 02:22:39;;;;;;;20.65;13.43;;;;;;;6.60;100.00;99276.23;1643516;87;21202;-82
2023/03/26 02:25:42;;;;;;;16.07;10.15;;;;;;;6.60;100.00;99276.23;1679525;85;21795;-81
2023/03/26 02:28:48;;;;;;;28.00;14.90;;;;;;;6.57;100.00;99264.35;1680589;85;21244;-81
2023/03/26 02:31:54;;;;;;;22.67;15.28;;;;;;;6.52;100.00;99270.83;1672607;86;21246;-82
2023/03/26 02:35:00;;;;;;;18.73;12.98;;;;;;;6.52;100.00;99278.98;1680579;85;21896;-82
2023/03/26 02:38:08;;;;;;;27.48;15.55;;;;;;;6.58;100.00;99270.12;1679455;85;21273;-82
2023/03/26 02:41:09;;;;;;;19.48;14.00;;;;;;;6.55;100.00;99266.41;1671696;86;21404;-81
2023/03/26 02:44:16;;;;;;;20.35;12.55;;;;;;;6.53;100.00;99266.56;1671408;86;21215;-82
2023/03/26 02:47:22;;;;;;;21.27;14.15;;;;;;;6.57;100.00;99257.56;1680673;85;21760;-82
2023/03/26 02:50:35;;;;;;;20.20;12.45;;;;;;;6.63;100.00;99254.13;1640223;85;21783;-82
2023/03/26 02:53:46;;;;;;;15.85;11.65;;;;;;;6.60;100.00;99261.30;1678429;85;21189;-82
2023/03/26 02:56:56;;;;;;;18.80;12.00;;;;;;;6.59;100.00;99259.09;1669663;86;21246;-81
2023/03/26 03:00:21;;;;;;;19.02;12.23;;;;;;;6.45;100.00;99260.34;1680644;85;21843;-82
2023/03/26 03:03:34;;;;;;;14.50;10.90;;;;;;;6.39;100.00;99257.80;1678628;85;21197;-82
2023/03/26 03:06:45;;;;;;;16.12;10.60;;;;;;;6.42;100.00;99261.52;1671130;85;21790;-82
2023/03/26 03:09:51;;;;;;;18.67;11.73;;;;;;;6.39;100.00;99265.42;1674900;84;21817;-82
2023/03/26 03:13:10;;;;;;;16.50;11.80;;;;;;;6.42;100.00;99264.76;1682504;83;21260;-82
2023/03/26 03:16:16;;;;;;;16.97;10.60;;;;;;;6.52;100.00;99262.16;1679273;85;21220;-82
2023/03/26 03:19:24;;;;;;;15.00;10.95;;;;;;;6.54;100.00;99257.91;1672593;86;21254;-82
2023/03/26 03:22:29;;;;;;;16.35;10.23;;;;;;;6.53;100.00;99256.22;1680672;85;21253;-82
2023/03/26 03:25:37;;;;;;;15.65;11.03;;;;;;;6.51;100.00;99256.41;1673815;83;21245;-82
2023/03/26 03:28:44;;;;;;;20.95;11.20;;;;;;;6.38;100.00;99258.30;1661709;86;21280;-82
2023/03/26 03:31:50;;;;;;;15.95;11.03;;;;;;;6.31;100.00;99255.13;1670276;86;21237;-81
2023/03/26 03:34:52;;;;;;;16.80;11.05;;;;;;;6.36;100.00;99253.58;1671102;86;21217;-82
2023/03/26 03:37:45;;;;;;;20.12;12.03;;;;;;;6.29;100.00;99249.84;1663068;86;21268;-82
2023/03/26 03:40:54;;;;;;;;;;;;;;;6.31;100.00;99244.27;1673668;86;21206;-82
2023/03/26 03:44:02;;;;;;;23.40;13.30;;;;;;;6.25;100.00;99241.70;1674113;85;20219;-82
2023/03/26 03:47:09;;;;;;;21.55;12.78;;;;;;;6.22;100.00;99232.58;1662305;86;21291;-82
2023/03/26 03:50:17;;;;;;;16.12;10.65;;;;;;;6.23;100.00;99236.98;1669863;86;21266;-82
2023/03/26 03:53:40;;;;;;;13.60;9.88;;;;;;;6.17;100.00;99236.84;1669894;85;21253;-82
2023/03/26 03:56:46;;;;;;;32.00;13.20;;;;;;;6.12;100.00;99237.36;1652943;86;21220;-82
2023/03/26 03:59:59;;;;;;;30.48;12.30;;;;;;;6.13;100.00;99230.91;1669892;86;21217;-82
2023/03/26 04:03:06;;;;;;;29.52;11.93;;;;;;;6.16;100.00;99229.17;1671093;86;21209;-82
2023/03/26 04:06:13;;;;;;;21.10;11.75;;;;;;;6.20;100.00;99225.61;1662945;86;21286;-82
2023/03/26 04:09:18;;;;;;;14.78;10.58;;;;;;;6.21;100.00;99220.02;1671300;86;21209;-82
2023/03/26 04:12:27;;;;;;;11.35;8.25;;;;;;;6.22;100.00;99224.94;1670011;86;21225;-82
2023/03/26 04:15:35;;;;;;;11.53;8.15;;;;;;;6.18;100.00;99231.22;1661795;86;21216;-82
2023/03/26 04:18:44;;;;;;;9.13;7.12;;;;;;;6.30;100.00;99231.68;1671142;86;21265;-82
2023/03/26 04:21:50;;;;;;;13.00;7.47;;;;;;;6.25;100.00;99234.08;1670945;86;22480;-82
2023/03/26 04:25:01;;;;;;;13.53;7.55;;;;;;;6.22;100.00;99238.52;1661747;86;21216;-82
2023/03/26 04:28:13;;;;;;;20.08;7.78;;;;;;;6.20;100.00;99238.67;1650309;85;21234;-82
2023/03/26 04:31:27;;;;;;;11.08;8.30;;;;;;;6.28;100.00;99245.44;1645178;87;21218;-82
2023/03/26 04:34:31;;;;;;;;;;;;;;;6.35;100.00;99241.02;1648906;87;21218;-82
2023/03/26 04:37:40;;;;;;;13.40;8.35;;;;;;;6.40;100.00;99248.64;1645140;86;20628;-82
2023/03/26 04:40:52;;;;;;;14.40;9.05;;;;;;;6.42;100.00;99243.03;1646686;86;21396;-82
2023/03/26 04:44:06;;;;;;;11.12;7.42;;;;;;;6.43;100.00;99246.07;1668214;86;21804;-82
2023/03/26 04:47:16;;;;;;;7.75;5.72;;;;;;;6.40;100.00;99241.34;1677648;85;21835;-81
2023/03/26 04:50:17;;;;;;;8.98;6.83;;;;;;;6.38;100.00;99238.45;1678865;85;21292;-82
2023/03/26 04:53:12;;;;;;;8.53;6.37;;;;;;;6.39;100.00;99242.85;1678934;85;21728;-81
2023/03/26 04:57:03;;;;;;;8.38;6.22;;;;;;;6.40;100.00;99239.98;1638277;86;21309;-82
2023/03/26 05:00:15;;;;;;;9.20;6.87;;;;;;;6.24;100.00;99231.87;1653288;86;21216;-82
2023/03/26 05:03:21;;;;;;;8.98;6.87;;;;;;;6.28;100.00;99225.08;1699039;84;21205;-83
2023/03/26 05:06:29;;;;;;;16.48;8.43;;;;;;;6.45;100.00;99225.03;1698845;84;21177;-82
2023/03/26 05:09:38;;;;;;;15.98;8.40;;;;;;;6.44;100.00;99224.67;1698947;84;21189;-82
2023/03/26 05:12:53;;;;;;;10.55;8.05;;;;;;;6.60;100.00;99231.41;1689856;84;21304;-82
2023/03/26 05:16:02;;;;;;;11.45;7.65;;;;;;;6.63;100.00;99234.62;1697531;84;21265;-82
2023/03/26 05:19:09;;;;;;;12.03;8.53;;;;;;;6.64;100.00;99244.98;1698786;84;21729;-82
2023/03/26 05:22:14;;;;;;;12.40;7.62;;;;;;;6.77;100.00;99258.81;1698804;84;21740;-82
2023/03/26 05:25:22;;;;;;;11.93;7.80;;;;;;;6.78;100.00;99248.30;1697327;84;21225;-82
2023/03/26 05:28:29;;;;;;;10.82;7.30;;;;;;;6.77;100.00;99258.81;1687782;83;21237;-82
2023/03/26 05:31:37;;;;;;;11.90;7.55;;;;;;;6.96;100.00;99256.17;1676681;85;21214;-82
2023/03/26 05:34:43;;;;;;;13.62;7.55;;;;;;;7.08;100.00;99262.06;1676613;85;21205;-82
2023/03/26 05:37:50;;;;;;;12.28;7.83;;;;;;;7.07;100.00;99260.38;1675378;85;22504;-82
2023/03/26 05:40:56;;;;;;;13.00;8.80;;;;;;;7.19;100.00;99265.72;1676605;85;21828;-82
2023/03/26 05:44:04;;;;;;;12.28;8.13;;;;;;;7.28;100.00;99260.56;1675774;85;21293;-82
2023/03/26 05:47:10;;;;;;;11.30;8.35;;;;;;;7.33;100.00;99255.94;1676522;85;21241;-82
2023/03/26 05:50:17;;;;;;;11.55;8.65;;;;;;;7.30;100.00;99257.16;1676515;85;21186;-82
2023/03/26 05:53:23;;;;;;;10.78;7.45;;;;;;;7.34;100.00;99252.18;1675273;85;21213;-82
2023/03/26 05:56:48;;;;;;;10.65;8.40;;;;;;;7.41;100.00;99248.56;1676591;85;22320;-82
2023/03/26 06:00:13;;;;;;;11.53;8.58;;;;;;;7.40;100.00;99241.44;1676499;85;21210;-82
2023/03/26 06:03:21;;;;;;;10.93;7.50;;;;;;;7.46;100.00;99240.38;1676513;85;21254;-82
2023/03/26 06:06:34;;;;;;;11.93;8.43;;;;;;;7.49;100.00;99241.38;1676966;85;21257;-82
2023/03/26 06:09:39;;;;;;;11.68;7.97;;;;;;;7.48;100.00;99239.66;1675391;85;21237;-82
2023/03/26 06:12:46;;;;;;;12.63;8.40;;;;;;;7.64;100.00;99243.62;1676573;85;21206;-83
2023/03/26 06:15:52;;;;;;;12.73;8.73;;;;;;;7.80;100.00;99247.55;1676555;85;21186;-83
2023/03/26 06:19:00;;;;;;;13.88;8.95;;;;;;;8.05;100.00;99248.70;1675864;85;21261;-82
2023/03/26 06:22:11;;;;;;;13.60;8.63;;;;;;;8.15;100.00;99243.30;1675316;85;21256;-82
2023/03/26 06:25:23;;;;;;;13.72;7.83;;;;;;;8.02;100.00;99251.78;1661993;85;21214;-82
2023/03/26 06:28:34;;;;;;;14.30;9.40;;;;;;;8.22;100.00;99237.94;1678642;83;21847;-82
2023/03/26 06:31:51;;;;;;;13.28;8.90;;;;;;;8.41;100.00;99237.92;1705095;84;21184;-81
2023/03/26 06:35:01;;;;;;;11.63;8.58;;;;;;;8.47;100.00;99223.56;1675270;85;21197;-82
2023/03/26 06:38:08;;;;;;;9.80;7.72;;;;;;;8.69;100.00;99230.75;1705021;84;21213;-82
2023/03/26 06:41:15;;;;;;;13.48;9.00;;;;;;;7.84;100.00;99237.98;1705109;84;21185;-82
2023/03/26 06:44:24;;;;;;;11.33;8.30;;;;;;;8.52;100.00;99246.16;1704077;84;21217;-82
2023/03/26 06:47:49;;;;;;;10.95;7.90;;;;;;;8.77;100.00;99243.45;1705101;84;21762;-81
2023/03/26 06:51:12;;;;;;;10.15;7.53;;;;;;;8.76;100.00;99243.12;1705174;84;21241;-82
2023/03/26 06:54:38;;;;;;;11.30;7.92;;;;;;;8.87;100.00;99235.80;1703595;84;21248;-82
2023/03/26 06:58:01;;;;;;;10.58;6.67;;;;;;;9.00;100.00;99241.09;1672221;84;21209;-81
2023/03/26 07:01:08;;;;;;;8.95;6.08;;;;;;;9.06;100.00;99232.14;1703750;84;21233;-82
2023/03/26 07:04:31;;;;;;;12.63;7.28;;;;;;;9.02;100.00;99233.55;1705034;84;21803;-82
2023/03/26 07:07:55;;;;;;;11.15;6.47;;;;;;;8.22;100.00;99231.65;1704992;84;21755;-81
2023/03/26 07:11:07;;;;;;;12.88;7.10;;;;;;;8.22;100.00;99231.13;1704988;84;21237;-81
2023/03/26 07:14:19;;;;;;;10.40;7.00;;;;;;;8.75;100.00;99233.75;1703414;84;21232;-82
2023/03/26 07:17:37;;;;;;;10.80;7.22;;;;;;;8.86;100.00;99230.55;1654095;84;21224;-82
2023/03/26 07:20:52;;;;;;;10.70;6.40;;;;;;;8.92;100.00;99230.61;1705086;84;21204;-82
2023/03/26 07:23:59;;;;;;;10.03;6.58;;;;;;;8.80;100.00;99230.80;1705141;84;21201;-82
2023/03/26 07:27:30;;;;;;;9.68;6.33;;;;;;;8.41;100.00;99231.11;1684009;84;21193;-82
2023/03/26 07:31:09;;;;;;;10.55;6.95;;;;;;;8.94;100.00;99223.63;1704120;83;21245;-82
2023/03/26 07:34:37;;;;;;;12.17;7.57;;;;;;;8.68;100.00;99231.80;1705337;84;21209;-82
2023/03/26 07:37:55;;;;;;;14.13;6.70;;;;;;;8.94;100.00;99231.28;1693042;84;21220;-82
2023/03/26 07:41:26;;;;;;;11.95;7.30;;;;;;;8.89;100.00;99224.20;1683729;84;21259;-82
2023/03/26 07:44:57;;;;;;;13.30;8.10;;;;;;;8.98;100.00;99222.17;1710591;84;21307;-82
2023/03/26 07:48:08;;;;;;;10.95;7.60;;;;;;;8.95;100.00;99221.22;1706918;84;21208;-82
2023/03/26 07:51:24;;;;;;;8.95;6.58;;;;;;;8.98;100.00;99219.97;1683190;84;21216;-82
2023/03/26 07:54:48;;;;;;;11.95;7.37;;;;;;;8.99;100.00;99221.66;1672726;85;21285;-82
2023/03/26 07:58:13;;;;;;;11.28;8.05;;;;;;;9.01;100.00;99216.87;1676541;84;21510;-81
2023/03/26 08:02:04;;;;;;;11.57;7.10;;;;;;;9.01;100.00;99218.23;1676813;84;21197;-82
2023/03/26 08:05:29;;;;;;;11.33;7.58;;;;;;;8.89;100.00;99215.14;1675109;85;21236;-81
2023/03/26 08:08:49;;;;;;;13.58;8.30;;;;;;;8.83;100.00;99216.77;1675100;85;21221;-82
2023/03/26 08:12:13;;;;;;;10.48;7.62;;;;;;;8.90;100.00;99211.41;1675180;85;21260;-81
2023/03/26 08:15:38;;;;;;;16.23;8.90;;;;;;;8.83;100.00;99205.86;1644083;87;21216;-82
2023/03/26 08:19:30;;;;;;;11.80;8.78;;;;;;;8.84;100.00;99206.70;1676858;85;21262;-82
2023/03/26 08:22:50;;;;;;;12.73;8.78;;;;;;;8.83;100.00;99203.13;1676858;85;21201;-82
2023/03/26 08:26:17;;;;;;;14.35;7.33;;;;;;;8.91;100.00;99203.02;1677022;85;21264;-82
2023/03/26 08:29:50;;;;;;;12.82;8.68;;;;;;;8.98;100.00;99207.70;1676392;84;21366;-82
2023/03/26 08:33:12;;;;;;;17.02;8.98;;;;;;;8.89;100.00;99201.52;1650799;87;21800;-82
2023/03/26 08:36:18;;;;;;;13.78;9.18;;;;;;;8.85;100.00;99201.08;1624619;88;21250;-82
2023/03/26 08:39:18;;;;;;;16.90;9.98;;;;;;;8.90;100.00;99202.70;1653116;87;21891;-82
2023/03/26 08:42:37;;;;;;;18.70;10.28;;;;;;;8.94;100.00;99202.65;1623749;88;21280;-82
2023/03/26 08:46:19;;;;;;;12.93;9.38;;;;;;;8.96;100.00;99197.84;1653092;87;21799;-82
2023/03/26 08:50:12;;;;;;;17.50;9.40;;;;;;;9.07;100.00;99203.29;1625094;88;21240;-82
2023/03/26 08:53:50;;;;;;;17.07;9.78;;;;;;;9.10;100.00;99198.82;1653110;87;21188;-82
2023/03/26 08:57:03;;;;;;;13.98;9.60;;;;;;;9.16;100.00;99197.20;1624403;88;22285;-81
2023/03/26 09:00:44;;;;;;;22.35;10.43;;;;;;;9.09;100.00;99205.33;1653135;87;21209;-82
2023/03/26 09:04:42;;;;;;;19.50;10.68;;;;;;;9.05;100.00;99199.92;1616895;88;21272;-82
2023/03/26 09:08:08;;;;;;;17.65;10.20;;;;;;;9.00;100.00;99192.84;1652043;86;21255;-82
2023/03/26 09:11:43;;;;;;;14.87;10.25;;;;;;;8.89;100.00;99192.84;1652380;87;21229;-82
2023/03/26 09:15:12;;;;;;;19.25;10.68;;;;;;;8.90;100.00;99190.95;1623959;88;21212;-82
2023/03/26 09:18:49;;;;;;;22.17;11.00;;;;;;;8.95;100.00;99190.70;1653352;87;21188;-82
2023/03/26 09:22:38;;;;;;;20.90;9.58;;;;;;;8.98;100.00;99185.87;1624068;88;21228;-82
2023/03/26 09:26:17;;;;;;;21.05;11.90;;;;;;;9.02;100.00;99187.19;1653369;87;21248;-82
2023/03/26 09:29:43;;;;;;;19.02;11.45;;;;;;;9.05;100.00;99184.08;1624827;87;21842;-82
2023/03/26 09:33:26;;;;;;;19.32;12.05;;;;;;;9.06;100.00;99172.97;1666349;85;21228;-82
2023/03/26 09:37:01;;;;;;;23.47;13.72;;;;;;;9.15;100.00;99164.98;1676748;85;21205;-82
2023/03/26 09:40:25;;;;;;;24.43;11.65;;;;;;;9.16;100.00;99160.36;1676816;85;21209;-81
2023/03/26 09:44:02;;;;;;;19.95;11.78;;;;;;;9.25;100.00;99161.92;1675560;85;21269;-82
2023/03/26 09:47:33;;;;;;;18.67;10.85;;;;;;;9.27;100.00;99161.23;1676355;85;21236;-82
2023/03/26 09:51:04;;;;;;;26.97;15.72;;;;;;;9.21;100.00;99156.53;1675483;85;21225;-82
2023/03/26 09:54:43;;;;;;;27.45;14.75;;;;;;;9.24;100.00;99160.24;1676828;85;21243;-82
2023/03/26 09:58:05;;;;;;;22.17;13.18;;;;;;;9.26;100.00;99154.05;1676769;85;21197;-82
2023/03/26 10:01:30;;;;;;;28.55;13.25;;;;;;;9.13;100.00;99158.05;1676294;85;21260;-82
2023/03/26 10:05:05;;;;;;;21.93;12.45;;;;;;;9.10;100.00;99151.09;1676789;85;21256;-82
2023/03/26 10:08:47;;;;;;;27.48;13.10;;;;;;;9.13;100.00;99153.95;1676866;85;21197;-82
2023/03/26 10:12:19;;;;;;;25.72;13.88;;;;;;;9.20;100.00;99152.95;1676164;85;21224;-82
2023/03/26 10:15:53;;;;;;;28.25;13.22;;;;;;;9.31;100.00;99154.31;1676773;85;21189;-82
2023/03/26 10:19:25;;;;;;;22.02;12.30;;;;;;;9.36;100.00;99151.86;1675543;85;21288;-82
2023/03/26 10:22:32;;;;;;;26.85;13.93;;;;;;;9.33;100.00;99144.06;1646553;87;21217;-82
2023/03/26 10:25:43;;;;;;;19.45;11.40;;;;;;;9.35;100.00;99145.22;1676811;85;21315;-82
2023/03/26 10:28:59;;;;;;;20.95;12.20;;;;;;;9.37;100.00;99146.72;1675340;85;21201;-82
2023/03/26 10:31:54;;;;;;;19.23;11.10;;;;;;;9.46;100.00;99148.27;1675611;85;21284;-82
2023/03/26 10:35:15;;;;;;;25.52;12.85;;;;;;;9.51;100.00;99150.94;1676698;85;21521;-81
2023/03/26 10:38:42;;;;;;;25.23;14.55;;;;;;;9.48;100.00;99150.27;1677043;85;21249;-82
2023/03/26 10:42:03;;;;;;;23.20;13.10;;;;;;;9.48;100.00;99150.80;1646806;87;21205;-82
2023/03/26 10:45:47;;;;;;;26.10;14.20;;;;;;;9.48;100.00;99143.97;1675532;85;21852;-82
2023/03/26 10:49:36;;;;;;;24.90;12.15;;;;;;;9.37;100.00;99138.53;1656933;85;21213;-82
2023/03/26 10:53:01;;;;;;;25.15;13.93;;;;;;;9.41;100.00;99134.38;1675789;85;21237;-82
2023/03/26 10:56:12;;;;;;;27.20;14.50;;;;;;;9.35;100.00;99134.30;1660124;85;21260;-82
2023/03/26 10:59:22;;;;;;;26.15;15.72;;;;;;;9.39;100.00;99132.87;1675460;85;21359;-82
2023/03/26 11:02:39;;;;;;;24.92;14.45;;;;;;;9.35;100.00;99132.94;1676164;85;21216;-82
2023/03/26 11:05:55;;;;;;;24.02;12.40;;;;;;;9.28;100.00;99126.08;1675658;85;21536;-82
2023/03/26 11:09:32;;;;;;;24.40;13.30;;;;;;;9.20;100.00;99128.93;1677161;85;21208;-82
2023/03/26 11:13:04;;;;;;;25.20;11.40;;;;;;;9.23;100.00;99124.98;1676531;85;21280;-82
2023/03/26 11:16:22;;;;;;;22.55;11.93;;;;;;;9.22;100.00;99129.56;1691250;84;21228;-82
2023/03/26 11:20:00;;;;;;;22.35;12.55;;;;;;;9.23;100.00;99127.19;1703027;84;21248;-82
2023/03/26 11:23:11;;;;;;;21.70;12.33;;;;;;;9.26;100.00;99126.77;1703445;84;21229;-81
2023/03/26 11:26:34;;;;;;;20.77;11.30;;;;;;;9.28;100.00;99125.23;1704244;84;21241;-82
2023/03/26 11:29:57;;;;;;;28.12;12.28;;;;;;;9.36;100.00;99127.30;1703905;84;21244;-82
2023/03/26 11:33:09;;;;;;;20.35;11.33;;;;;;;9.45;100.00;99125.25;1648402;87;21264;-82
2023/03/26 11:36:18;;;;;;;24.87;11.33;;;;;;;9.40;100.00;99120.91;1671890;86;21200;-81
2023/03/26 11:39:31;;;;;;;20.65;10.80;;;;;;;9.41;100.00;99116.63;1670431;86;21248;-82
2023/03/26 11:42:38;;;;;;;20.52;10.20;;;;;;;9.43;100.00;99124.09;1670778;86;21232;-82
2023/03/26 11:45:54;;;;;;;19.62;10.68;;;;;;;9.48;100.00;99111.22;1671612;86;21232;-82
2023/03/26 11:49:09;;;;;;;17.50;8.75;;;;;;;9.46;100.00;99103.23;1670293;86;21573;-82
2023/03/26 11:52:18;;;;;;;18.25;9.35;;;;;;;9.35;100.00;99105.12;1670350;85;21295;-82
2023/03/26 11:55:24;;;;;;;18.45;9.05;;;;;;;9.32;100.00;99104.17;1671963;86;21212;-82
2023/03/26 11:58:40;;;;;;;16.42;8.90;;;;;;;9.31;100.00;99109.81;1670994;86;21216;-82
2023/03/26 12:02:17;;;;;;;18.55;9.23;;;;;;;9.34;100.00;99105.33;1671554;86;21196;-82
2023/03/26 12:05:35;;;;;;;18.37;9.40;;;;;;;9.37;100.00;99102.22;1670380;85;21211;-82
2023/03/26 12:08:42;;;;;;;17.95;8.15;;;;;;;9.41;100.00;99094.80;1671715;86;21239;-82
2023/03/26 12:11:49;;;;;;;15.03;9.03;;;;;;;9.45;100.00;99089.77;1671762;86;21236;-82
2023/03/26 12:14:56;;;;;;;16.48;8.75;;;;;;;9.51;100.00;99090.36;1671471;86;21914;-82
2023/03/26 12:18:03;;;;;;;13.05;8.08;;;;;;;9.53;100.00;99084.69;1670253;86;21319;-82
2023/03/26 12:21:17;;;;;;;13.38;7.42;;;;;;;9.55;100.00;99088.05;1671525;86;21204;-83
2023/03/26 12:24:37;;;;;;;15.28;8.55;;;;;;;9.63;100.00;99084.65;1670379;86;21437;-82
2023/03/26 12:27:42;;;;;;;18.32;8.85;;;;;;;9.61;100.00;99081.81;1671113;86;21312;-82
2023/03/26 12:31:08;;;;;;;23.73;10.18;;;;;;;9.65;100.00;99084.47;1655894;84;21299;-82
2023/03/26 12:34:18;;;;;;;16.25;9.58;;;;;;;9.65;100.00;99079.01;1670561;86;21302;-82
2023/03/26 12:37:44;;;;;;;14.50;7.90;;;;;;;9.67;100.00;99085.09;1671769;86;21203;-82
2023/03/26 12:40:51;;;;;;;13.95;7.47;;;;;;;9.70;100.00;99079.25;1671715;86;21824;-82
2023/03/26 12:43:58;;;;;;;13.15;7.47;;;;;;;9.71;100.00;99071.37;1655438;86;21204;-82
2023/03/26 12:46:58;;;;;;;20.52;7.70;;;;;;;9.70;100.00;99069.69;1671389;86;21742;-82
2023/03/26 12:50:08;;;;;;;12.35;7.45;;;;;;;9.71;100.00;99070.00;1655029;86;22487;-82
2023/03/26 12:53:56;;;;;;;16.62;8.55;;;;;;;9.73;100.00;99070.63;1670365;86;21239;-82
2023/03/26 12:57:25;;;;;;;15.05;9.15;;;;;;;9.73;100.00;99063.28;1671621;86;21200;-83
2023/03/26 13:00:53;;;;;;;19.20;8.83;;;;;;;9.70;100.00;99062.86;1671619;86;21248;-82
2023/03/26 13:04:12;;;;;;;9.73;6.75;;;;;;;9.72;100.00;99055.30;1670812;86;21240;-81
2023/03/26 13:07:39;;;;;;;12.23;7.00;;;;;;;9.74;100.00;99058.69;1672139;84;21220;-82
2023/03/26 13:11:11;;;;;;;9.28;6.28;;;;;;;9.77;100.00;99061.00;1671583;86;21766;-82
2023/03/26 13:14:33;;;;;;;6.42;5.30;;;;;;;9.79;100.00;99061.66;1670373;85;21287;-82
2023/03/26 13:17:53;;;;;;;11.50;5.90;;;;;;;9.79;100.00;99045.27;1671668;86;21759;-82
2023/03/26 13:21:31;;;;;;;7.65;5.50;;;;;;;9.80;99.63;99049.69;1671608;86;21255;-82
2023/03/26 13:24:45;;;;;;;13.13;6.70;;;;;;;9.75;99.56;99046.72;1620113;88;21862;-82
2023/03/26 13:28:23;;;;;;;13.00;6.85;;;;;;;9.76;98.89;99036.64;1710849;84;21198;-82
2023/03/26 13:31:35;;;;;;;13.20;6.97;;;;;;;9.76;98.61;99040.20;1710934;84;21199;-82
2023/03/26 13:35:07;;;;;;;11.68;6.47;;;;;;;9.75;98.05;99038.53;1709542;84;22640;-82
2023/03/26 13:38:34;;;;;;;9.80;6.10;;;;;;;9.73;97.85;99035.14;1709431;84;21237;-81
2023/03/26 13:41:55;;;;;;;8.25;5.95;;;;;;;9.73;97.95;99032.41;1710869;84;21206;-82
2023/03/26 13:45:40;;;;;;;10.00;5.62;;;;;;;9.78;98.16;99032.64;1709911;84;21206;-82
2023/03/26 13:49:02;;;;;;;10.40;5.72;;;;;;;9.83;97.76;99030.67;1709765;84;21186;-82
2023/03/26 13:52:19;;;;;;;9.98;5.42;;;;;;;9.77;97.70;99030.12;1710395;84;21218;-82
2023/03/26 13:55:44;;;;;;;8.43;5.40;;;;;;;9.77;97.86;99022.77;1709633;84;21290;-82
2023/03/26 13:59:14;;;;;;;10.25;5.95;;;;;;;9.65;98.30;99021.67;1710797;84;21203;-82
2023/03/26 14:02:36;;;;;;;9.93;5.97;;;;;;;9.64;98.55;99013.14;1664591;84;21254;-82
2023/03/26 14:05:51;;;;;;;11.18;6.60;;;;;;;9.59;98.91;99012.38;1685100;84;21214;-82
2023/03/26 14:08:55;;;;;;;19.73;8.63;;;;;;;9.64;99.25;99009.88;1710794;84;21194;-82
2023/03/26 14:12:15;;;;;;;18.20;9.00;;;;;;;9.62;99.48;99008.41;1711147;84;21218;-82
2023/03/26 14:15:27;;;;;;;13.83;7.87;;;;;;;9.60;99.58;99009.99;1709577;83;21531;-82
2023/03/26 14:18:43;;;;;;;11.70;6.60;;;;;;;9.58;99.59;99008.49;1710966;84;21820;-82
2023/03/26 14:22:09;;;;;;;15.45;7.22;;;;;;;9.59;99.74;99010.17;1709524;84;21375;-82
2023/03/26 14:25:33;;;;;;;15.03;6.70;;;;;;;9.61;99.63;99008.10;1709945;84;21203;-82
2023/03/26 14:29:10;;;;;;;10.25;6.60;;;;;;;9.61;99.86;99002.12;1710843;82;21257;-82
2023/03/26 14:33:04;;;;;;;12.93;7.53;;;;;;;9.63;100.00;99005.47;1714892;82;21197;-82
2023/03/26 14:36:40;;;;;;;13.43;7.47;;;;;;;9.61;100.00;98998.55;1724900;83;21174;-82
2023/03/26 14:40:25;;;;;;;16.85;8.60;;;;;;;9.67;99.81;98995.00;1727874;83;21224;-82
2023/03/26 14:43:37;;;;;;;18.85;7.53;;;;;;;9.60;99.75;98996.34;1727845;83;21314;-82
2023/03/26 14:47:15;;;;;;;17.20;7.80;;;;;;;9.58;99.92;98988.86;1688835;82;21239;-81
2023/03/26 14:50:45;;;;;;;13.28;8.13;;;;;;;9.58;100.00;98985.29;1716226;83;21196;-81
2023/03/26 14:53:57;;;;;;;23.50;10.15;;;;;;;9.57;100.00;98980.88;1715167;83;21252;-82
2023/03/26 14:57:42;;;;;;;14.63;8.40;;;;;;;9.51;100.00;98978.45;1716210;83;21236;-82
2023/03/26 15:01:13;;;;;;;16.15;8.70;;;;;;;9.46;100.00;98985.88;1716235;83;22515;-82
2023/03/26 15:04:47;;;;;;;19.55;11.35;;;;;;;9.38;100.00;98982.45;1716163;83;21747;-81
2023/03/26 15:08:25;;;;;;;16.65;10.03;;;;;;;9.34;100.00;98983.89;1715005;83;22534;-82
2023/03/26 15:11:46;;;;;;;15.08;10.15;;;;;;;9.26;100.00;98979.42;1716320;83;21189;-82
2023/03/26 15:15:36;;;;;;;15.25;10.48;;;;;;;9.32;100.00;98989.56;1715322;83;21358;-82
2023/03/26 15:19:33;;;;;;;18.85;10.98;;;;;;;9.33;100.00;98981.69;1716189;83;21200;-82